sensor_id;sensor_type;location;lat;lon;timestamp;temperature;humidity
8043;DHT22;4064;48.132;11.366;2023-05-29T00:00:58;12.30;75.20
8043;DHT22;4064;48.132;11.366;2023-05-29T00:03:25;12.30;75.30
8043;DHT22;4064;48.132;11.366;2023-05-29T00:05:51;12.20;75.00
8043;DHT22;4064;48.132;11.366;2023-05-29T00:08:18;12.20;74.60
8043;DHT22;4064;48.132;11.366;2023-05-29T00:10:43;12.20;75.50
8043;DHT22;4064;48.132;11.366;2023-05-29T00:13:10;12.20;75.00
8043;DHT22;4064;48.132;11.366;2023-05-29T00:15:36;12.10;75.50
8043;DHT22;4064;48.132;11.366;2023-05-29T00:18:02;12.10;74.90
8043;DHT22;4064;48.132;11.366;2023-05-29T00:20:27;12.10;76.10
8043;DHT22;4064;48.132;11.366;2023-05-29T00:22:53;12.10;75.70
8043;DHT22;4064;48.132;11.366;2023-05-29T00:25:19;12.00;76.10
8043;DHT22;4064;48.132;11.366;2023-05-29T00:27:45;12.00;76.90
8043;DHT22;4064;48.132;11.366;2023-05-29T00:30:11;11.90;76.90
8043;DHT22;4064;48.132;11.366;2023-05-29T00:32:37;11.90;77.40
8043;DHT22;4064;48.132;11.366;2023-05-29T00:35:03;11.90;76.40
8043;DHT22;4064;48.132;11.366;2023-05-29T00:37:29;11.80;77.00
8043;DHT22;4064;48.132;11.366;2023-05-29T00:39:55;11.70;76.80
8043;DHT22;4064;48.132;11.366;2023-05-29T00:42:22;11.70;75.90
8043;DHT22;4064;48.132;11.366;2023-05-29T00:44:47;11.60;75.50
8043;DHT22;4064;48.132;11.366;2023-05-29T00:47:14;11.60;75.20
8043;DHT22;4064;48.132;11.366;2023-05-29T00:49:41;11.60;76.10
8043;DHT22;4064;48.132;11.366;2023-05-29T00:52:09;11.50;75.80
8043;DHT22;4064;48.132;11.366;2023-05-29T00:54:36;11.40;76.10
8043;DHT22;4064;48.132;11.366;2023-05-29T00:57:04;11.40;76.70
8043;DHT22;4064;48.132;11.366;2023-05-29T00:59:32;11.40;77.90
8043;DHT22;4064;48.132;11.366;2023-05-29T01:02:00;11.50;78.60
8043;DHT22;4064;48.132;11.366;2023-05-29T01:04:27;11.50;79.00
8043;DHT22;4064;48.132;11.366;2023-05-29T01:06:53;11.40;79.60
8043;DHT22;4064;48.132;11.366;2023-05-29T01:09:19;11.40;79.00
8043;DHT22;4064;48.132;11.366;2023-05-29T01:12:14;11.40;79.80
8043;DHT22;4064;48.132;11.366;2023-05-29T01:27:55;11.30;81.50
8043;DHT22;4064;48.132;11.366;2023-05-29T01:30:28;11.30;81.50
8043;DHT22;4064;48.132;11.366;2023-05-29T01:32:54;11.20;82.40
8043;DHT22;4064;48.132;11.366;2023-05-29T01:35:20;11.20;82.80
8043;DHT22;4064;48.132;11.366;2023-05-29T01:37:46;11.10;83.00
8043;DHT22;4064;48.132;11.366;2023-05-29T01:40:13;11.00;82.80
8043;DHT22;4064;48.132;11.366;2023-05-29T01:42:40;11.00;82.60
8043;DHT22;4064;48.132;11.366;2023-05-29T01:45:06;11.00;83.90
8043;DHT22;4064;48.132;11.366;2023-05-29T01:47:33;11.00;84.40
8043;DHT22;4064;48.132;11.366;2023-05-29T01:50:01;11.10;84.70
8043;DHT22;4064;48.132;11.366;2023-05-29T01:52:28;11.00;84.40
8043;DHT22;4064;48.132;11.366;2023-05-29T01:54:54;11.10;85.00
8043;DHT22;4064;48.132;11.366;2023-05-29T01:57:20;11.00;84.30
8043;DHT22;4064;48.132;11.366;2023-05-29T01:59:48;11.00;84.70
8043;DHT22;4064;48.132;11.366;2023-05-29T02:02:15;11.00;85.00
8043;DHT22;4064;48.132;11.366;2023-05-29T02:04:41;11.00;85.00
8043;DHT22;4064;48.132;11.366;2023-05-29T02:07:07;10.90;85.80
8043;DHT22;4064;48.132;11.366;2023-05-29T02:09:34;10.90;85.50
8043;DHT22;4064;48.132;11.366;2023-05-29T02:12:01;10.80;86.30
8043;DHT22;4064;48.132;11.366;2023-05-29T02:14:27;10.70;86.90
8043;DHT22;4064;48.132;11.366;2023-05-29T02:16:54;10.60;85.90
8043;DHT22;4064;48.132;11.366;2023-05-29T02:19:20;10.60;87.40
8043;DHT22;4064;48.132;11.366;2023-05-29T02:21:47;10.70;87.20
8043;DHT22;4064;48.132;11.366;2023-05-29T02:24:14;10.70;87.50
8043;DHT22;4064;48.132;11.366;2023-05-29T02:26:40;10.60;87.50
8043;DHT22;4064;48.132;11.366;2023-05-29T02:29:05;10.70;87.70
8043;DHT22;4064;48.132;11.366;2023-05-29T02:31:32;10.70;87.60
8043;DHT22;4064;48.132;11.366;2023-05-29T02:33:58;10.70;87.40
8043;DHT22;4064;48.132;11.366;2023-05-29T02:36:24;10.70;87.70
8043;DHT22;4064;48.132;11.366;2023-05-29T02:38:51;10.60;88.10
8043;DHT22;4064;48.132;11.366;2023-05-29T02:41:16;10.60;87.80
8043;DHT22;4064;48.132;11.366;2023-05-29T02:43:42;10.60;88.10
8043;DHT22;4064;48.132;11.366;2023-05-29T02:46:08;10.50;88.00
8043;DHT22;4064;48.132;11.366;2023-05-29T02:48:34;10.50;88.50
8043;DHT22;4064;48.132;11.366;2023-05-29T02:51:00;10.50;88.20
8043;DHT22;4064;48.132;11.366;2023-05-29T02:53:25;10.40;89.30
8043;DHT22;4064;48.132;11.366;2023-05-29T02:55:52;10.30;89.20
8043;DHT22;4064;48.132;11.366;2023-05-29T02:58:19;10.30;89.90
8043;DHT22;4064;48.132;11.366;2023-05-29T03:00:46;10.20;89.70
8043;DHT22;4064;48.132;11.366;2023-05-29T03:03:13;10.20;90.40
8043;DHT22;4064;48.132;11.366;2023-05-29T03:05:39;10.20;90.60
8043;DHT22;4064;48.132;11.366;2023-05-29T03:08:05;10.10;90.90
8043;DHT22;4064;48.132;11.366;2023-05-29T03:10:30;10.10;90.80
8043;DHT22;4064;48.132;11.366;2023-05-29T03:12:56;10.00;91.00
8043;DHT22;4064;48.132;11.366;2023-05-29T03:15:22;10.10;90.90
8043;DHT22;4064;48.132;11.366;2023-05-29T03:17:48;10.10;91.00
8043;DHT22;4064;48.132;11.366;2023-05-29T03:20:14;10.10;91.10
8043;DHT22;4064;48.132;11.366;2023-05-29T03:22:41;10.10;91.20
8043;DHT22;4064;48.132;11.366;2023-05-29T03:25:07;10.10;91.20
8043;DHT22;4064;48.132;11.366;2023-05-29T03:27:35;10.10;91.20
8043;DHT22;4064;48.132;11.366;2023-05-29T03:30:01;10.10;91.10
8043;DHT22;4064;48.132;11.366;2023-05-29T03:32:28;10.10;91.30
8043;DHT22;4064;48.132;11.366;2023-05-29T03:34:54;10.00;91.40
8043;DHT22;4064;48.132;11.366;2023-05-29T03:37:20;10.00;91.40
8043;DHT22;4064;48.132;11.366;2023-05-29T03:39:47;10.10;91.60
8043;DHT22;4064;48.132;11.366;2023-05-29T03:42:13;10.00;91.70
8043;DHT22;4064;48.132;11.366;2023-05-29T03:44:40;10.10;92.00
8043;DHT22;4064;48.132;11.366;2023-05-29T03:47:06;10.00;91.90
8043;DHT22;4064;48.132;11.366;2023-05-29T03:49:34;10.00;91.70
8043;DHT22;4064;48.132;11.366;2023-05-29T03:52:00;9.90;92.30
8043;DHT22;4064;48.132;11.366;2023-05-29T03:54:26;9.80;92.50
8043;DHT22;4064;48.132;11.366;2023-05-29T03:56:51;9.80;92.90
8043;DHT22;4064;48.132;11.366;2023-05-29T03:59:17;9.80;93.10
8043;DHT22;4064;48.132;11.366;2023-05-29T04:01:43;9.90;92.90
8043;DHT22;4064;48.132;11.366;2023-05-29T04:04:09;9.90;92.70
8043;DHT22;4064;48.132;11.366;2023-05-29T04:06:35;9.90;93.00
8043;DHT22;4064;48.132;11.366;2023-05-29T04:09:04;9.80;93.30
8043;DHT22;4064;48.132;11.366;2023-05-29T04:11:33;9.90;93.70
8043;DHT22;4064;48.132;11.366;2023-05-29T04:14:00;9.90;93.80
8043;DHT22;4064;48.132;11.366;2023-05-29T04:16:27;9.90;93.20
8043;DHT22;4064;48.132;11.366;2023-05-29T04:18:53;9.80;93.20
8043;DHT22;4064;48.132;11.366;2023-05-29T04:21:20;9.90;93.60
8043;DHT22;4064;48.132;11.366;2023-05-29T04:23:45;9.80;93.50
8043;DHT22;4064;48.132;11.366;2023-05-29T04:26:11;9.90;93.40
8043;DHT22;4064;48.132;11.366;2023-05-29T04:28:38;10.10;92.80
8043;DHT22;4064;48.132;11.366;2023-05-29T04:31:05;10.20;93.20
8043;DHT22;4064;48.132;11.366;2023-05-29T04:33:31;10.20;92.90
8043;DHT22;4064;48.132;11.366;2023-05-29T04:35:58;10.20;93.50
8043;DHT22;4064;48.132;11.366;2023-05-29T04:38:27;10.30;93.20
8043;DHT22;4064;48.132;11.366;2023-05-29T04:40:53;10.40;93.80
8043;DHT22;4064;48.132;11.366;2023-05-29T04:43:23;10.40;93.50
8043;DHT22;4064;48.132;11.366;2023-05-29T04:45:52;10.50;93.30
8043;DHT22;4064;48.132;11.366;2023-05-29T04:48:18;10.60;94.10
8043;DHT22;4064;48.132;11.366;2023-05-29T04:50:44;10.60;93.90
8043;DHT22;4064;48.132;11.366;2023-05-29T04:53:11;10.70;94.20
8043;DHT22;4064;48.132;11.366;2023-05-29T04:55:36;10.80;93.60
8043;DHT22;4064;48.132;11.366;2023-05-29T04:58:02;10.90;94.00
8043;DHT22;4064;48.132;11.366;2023-05-29T05:00:28;11.10;93.80
8043;DHT22;4064;48.132;11.366;2023-05-29T05:02:54;11.20;93.50
8043;DHT22;4064;48.132;11.366;2023-05-29T05:05:21;11.40;94.00
8043;DHT22;4064;48.132;11.366;2023-05-29T05:07:46;11.60;93.70
8043;DHT22;4064;48.132;11.366;2023-05-29T05:10:12;11.70;93.90
8043;DHT22;4064;48.132;11.366;2023-05-29T05:12:38;11.90;93.40
8043;DHT22;4064;48.132;11.366;2023-05-29T05:15:07;12.00;93.40
8043;DHT22;4064;48.132;11.366;2023-05-29T05:17:33;12.10;93.50
8043;DHT22;4064;48.132;11.366;2023-05-29T05:20:01;12.30;93.60
8043;DHT22;4064;48.132;11.366;2023-05-29T05:22:28;12.50;93.00
8043;DHT22;4064;48.132;11.366;2023-05-29T05:24:54;12.70;92.90
8043;DHT22;4064;48.132;11.366;2023-05-29T05:27:20;12.90;93.00
8043;DHT22;4064;48.132;11.366;2023-05-29T05:29:46;13.10;92.40
8043;DHT22;4064;48.132;11.366;2023-05-29T05:32:12;13.20;91.70
8043;DHT22;4064;48.132;11.366;2023-05-29T05:34:38;13.30;91.50
8043;DHT22;4064;48.132;11.366;2023-05-29T05:37:04;13.60;92.00
8043;DHT22;4064;48.132;11.366;2023-05-29T05:39:29;13.70;91.40
8043;DHT22;4064;48.132;11.366;2023-05-29T05:41:55;13.90;90.80
8043;DHT22;4064;48.132;11.366;2023-05-29T05:44:21;14.10;90.70
8043;DHT22;4064;48.132;11.366;2023-05-29T05:46:47;14.20;90.60
8043;DHT22;4064;48.132;11.366;2023-05-29T05:49:13;14.30;90.40
8043;DHT22;4064;48.132;11.366;2023-05-29T05:51:38;14.40;90.20
8043;DHT22;4064;48.132;11.366;2023-05-29T05:54:05;14.60;90.20
8043;DHT22;4064;48.132;11.366;2023-05-29T05:56:31;14.70;90.10
8043;DHT22;4064;48.132;11.366;2023-05-29T05:58:57;14.80;89.50
8043;DHT22;4064;48.132;11.366;2023-05-29T06:01:23;15.00;89.20
8043;DHT22;4064;48.132;11.366;2023-05-29T06:03:48;15.10;88.90
8043;DHT22;4064;48.132;11.366;2023-05-29T06:06:14;15.20;88.80
8043;DHT22;4064;48.132;11.366;2023-05-29T06:08:42;15.40;87.30
8043;DHT22;4064;48.132;11.366;2023-05-29T06:11:09;15.50;86.70
8043;DHT22;4064;48.132;11.366;2023-05-29T06:13:34;15.50;87.10
8043;DHT22;4064;48.132;11.366;2023-05-29T06:16:00;15.70;87.50
8043;DHT22;4064;48.132;11.366;2023-05-29T06:18:26;15.80;86.60
8043;DHT22;4064;48.132;11.366;2023-05-29T06:20:52;16.00;86.80
8043;DHT22;4064;48.132;11.366;2023-05-29T06:23:18;16.10;86.20
8043;DHT22;4064;48.132;11.366;2023-05-29T06:25:44;16.20;86.40
8043;DHT22;4064;48.132;11.366;2023-05-29T06:28:09;16.40;85.90
8043;DHT22;4064;48.132;11.366;2023-05-29T06:30:35;16.60;85.90
8043;DHT22;4064;48.132;11.366;2023-05-29T06:33:01;16.80;85.30
8043;DHT22;4064;48.132;11.366;2023-05-29T06:35:27;16.90;84.80
8043;DHT22;4064;48.132;11.366;2023-05-29T06:37:53;17.10;85.10
8043;DHT22;4064;48.132;11.366;2023-05-29T06:40:19;17.30;84.20
8043;DHT22;4064;48.132;11.366;2023-05-29T06:42:46;17.40;83.70
8043;DHT22;4064;48.132;11.366;2023-05-29T06:45:12;17.50;82.70
8043;DHT22;4064;48.132;11.366;2023-05-29T06:47:39;17.70;82.90
8043;DHT22;4064;48.132;11.366;2023-05-29T06:50:08;17.90;83.50
8043;DHT22;4064;48.132;11.366;2023-05-29T06:52:33;18.10;81.20
8043;DHT22;4064;48.132;11.366;2023-05-29T06:54:59;18.20;82.40
8043;DHT22;4064;48.132;11.366;2023-05-29T06:57:26;18.40;81.10
8043;DHT22;4064;48.132;11.366;2023-05-29T06:59:53;18.60;81.70
8043;DHT22;4064;48.132;11.366;2023-05-29T07:02:19;18.80;79.70
8043;DHT22;4064;48.132;11.366;2023-05-29T07:04:45;18.90;78.40
8043;DHT22;4064;48.132;11.366;2023-05-29T07:07:11;19.10;78.10
8043;DHT22;4064;48.132;11.366;2023-05-29T07:09:37;19.40;78.20
8043;DHT22;4064;48.132;11.366;2023-05-29T07:12:05;19.60;77.20
8043;DHT22;4064;48.132;11.366;2023-05-29T07:14:32;19.90;75.70
8043;DHT22;4064;48.132;11.366;2023-05-29T07:16:59;20.40;74.00
8043;DHT22;4064;48.132;11.366;2023-05-29T07:19:26;21.10;72.40
8043;DHT22;4064;48.132;11.366;2023-05-29T07:21:52;21.50;71.10
8043;DHT22;4064;48.132;11.366;2023-05-29T07:24:18;21.90;70.50
8043;DHT22;4064;48.132;11.366;2023-05-29T07:26:44;22.10;70.10
8043;DHT22;4064;48.132;11.366;2023-05-29T07:29:10;22.40;69.40
8043;DHT22;4064;48.132;11.366;2023-05-29T07:31:36;22.60;69.30
8043;DHT22;4064;48.132;11.366;2023-05-29T07:34:05;22.80;68.50
8043;DHT22;4064;48.132;11.366;2023-05-29T07:36:31;22.90;65.60
8043;DHT22;4064;48.132;11.366;2023-05-29T07:38:58;23.10;66.40
8043;DHT22;4064;48.132;11.366;2023-05-29T07:41:24;23.20;65.00
8043;DHT22;4064;48.132;11.366;2023-05-29T07:43:52;23.30;63.70
8043;DHT22;4064;48.132;11.366;2023-05-29T07:46:18;23.50;63.30
8043;DHT22;4064;48.132;11.366;2023-05-29T07:48:45;23.70;62.70
8043;DHT22;4064;48.132;11.366;2023-05-29T07:51:13;24.00;61.60
8043;DHT22;4064;48.132;11.366;2023-05-29T07:53:39;24.10;61.40
8043;DHT22;4064;48.132;11.366;2023-05-29T07:56:05;24.30;60.50
8043;DHT22;4064;48.132;11.366;2023-05-29T07:58:31;24.40;59.60
8043;DHT22;4064;48.132;11.366;2023-05-29T08:00:57;24.50;59.20
8043;DHT22;4064;48.132;11.366;2023-05-29T08:03:23;24.60;58.80
8043;DHT22;4064;48.132;11.366;2023-05-29T08:05:48;24.60;57.80
8043;DHT22;4064;48.132;11.366;2023-05-29T08:08:14;24.80;57.80
8043;DHT22;4064;48.132;11.366;2023-05-29T08:10:40;25.00;57.80
8043;DHT22;4064;48.132;11.366;2023-05-29T08:13:06;25.00;57.70
8043;DHT22;4064;48.132;11.366;2023-05-29T08:15:32;25.00;57.70
8043;DHT22;4064;48.132;11.366;2023-05-29T08:17:58;25.10;57.80
8043;DHT22;4064;48.132;11.366;2023-05-29T08:20:26;25.20;57.90
8043;DHT22;4064;48.132;11.366;2023-05-29T08:22:51;25.50;57.80
8043;DHT22;4064;48.132;11.366;2023-05-29T08:25:17;25.80;57.80
8043;DHT22;4064;48.132;11.366;2023-05-29T08:27:44;26.20;58.00
8043;DHT22;4064;48.132;11.366;2023-05-29T08:30:11;26.60;57.30
8043;DHT22;4064;48.132;11.366;2023-05-29T08:32:37;26.80;56.90
8043;DHT22;4064;48.132;11.366;2023-05-29T08:35:03;26.90;55.80
8043;DHT22;4064;48.132;11.366;2023-05-29T08:37:30;26.90;56.00
8043;DHT22;4064;48.132;11.366;2023-05-29T08:39:56;27.00;55.30
8043;DHT22;4064;48.132;11.366;2023-05-29T08:42:30;27.10;54.70
8043;DHT22;4064;48.132;11.366;2023-05-29T08:45:03;27.20;54.10
8043;DHT22;4064;48.132;11.366;2023-05-29T08:47:33;27.20;54.90
8043;DHT22;4064;48.132;11.366;2023-05-29T08:50:01;27.30;53.90
8043;DHT22;4064;48.132;11.366;2023-05-29T08:52:31;27.20;53.40
8043;DHT22;4064;48.132;11.366;2023-05-29T08:54:58;27.20;53.50
8043;DHT22;4064;48.132;11.366;2023-05-29T08:57:29;27.20;53.10
8043;DHT22;4064;48.132;11.366;2023-05-29T08:59:56;27.40;53.40
8043;DHT22;4064;48.132;11.366;2023-05-29T09:02:22;27.50;52.60
8043;DHT22;4064;48.132;11.366;2023-05-29T09:04:48;27.70;52.80
8043;DHT22;4064;48.132;11.366;2023-05-29T09:07:17;27.90;52.80
8043;DHT22;4064;48.132;11.366;2023-05-29T09:09:47;28.00;51.90
8043;DHT22;4064;48.132;11.366;2023-05-29T09:12:15;28.00;52.00
8043;DHT22;4064;48.132;11.366;2023-05-29T09:14:44;27.90;51.80
8043;DHT22;4064;48.132;11.366;2023-05-29T09:17:12;28.00;52.00
8043;DHT22;4064;48.132;11.366;2023-05-29T09:19:38;28.10;52.10
8043;DHT22;4064;48.132;11.366;2023-05-29T09:22:10;28.00;50.70
8043;DHT22;4064;48.132;11.366;2023-05-29T09:24:39;27.80;51.20
8043;DHT22;4064;48.132;11.366;2023-05-29T09:27:05;27.80;51.30
8043;DHT22;4064;48.132;11.366;2023-05-29T09:32:10;27.90;49.70
8043;DHT22;4064;48.132;11.366;2023-05-29T09:34:37;27.70;50.00
8043;DHT22;4064;48.132;11.366;2023-05-29T09:37:07;27.80;50.80
8043;DHT22;4064;48.132;11.366;2023-05-29T09:39:47;28.00;50.40
8043;DHT22;4064;48.132;11.366;2023-05-29T09:42:15;28.10;49.70
8043;DHT22;4064;48.132;11.366;2023-05-29T09:44:42;28.20;50.10
8043;DHT22;4064;48.132;11.366;2023-05-29T09:47:11;28.40;49.90
8043;DHT22;4064;48.132;11.366;2023-05-29T09:49:42;28.50;49.20
8043;DHT22;4064;48.132;11.366;2023-05-29T09:52:11;28.40;48.40
8043;DHT22;4064;48.132;11.366;2023-05-29T09:54:42;28.30;48.60
8043;DHT22;4064;48.132;11.366;2023-05-29T09:57:14;28.00;49.30
8043;DHT22;4064;48.132;11.366;2023-05-29T09:59:43;27.90;49.30
8043;DHT22;4064;48.132;11.366;2023-05-29T10:02:17;28.00;49.10
8043;DHT22;4064;48.132;11.366;2023-05-29T10:04:43;28.10;48.60
8043;DHT22;4064;48.132;11.366;2023-05-29T10:07:24;28.00;48.30
8043;DHT22;4064;48.132;11.366;2023-05-29T10:09:59;27.80;47.30
8043;DHT22;4064;48.132;11.366;2023-05-29T10:12:27;27.60;48.70
8043;DHT22;4064;48.132;11.366;2023-05-29T10:14:57;27.60;48.70
8043;DHT22;4064;48.132;11.366;2023-05-29T10:17:28;27.60;47.10
8043;DHT22;4064;48.132;11.366;2023-05-29T10:19:56;27.70;46.90
8043;DHT22;4064;48.132;11.366;2023-05-29T10:22:25;27.60;47.20
8043;DHT22;4064;48.132;11.366;2023-05-29T10:24:56;27.80;46.60
8043;DHT22;4064;48.132;11.366;2023-05-29T10:27:23;27.80;47.00
8043;DHT22;4064;48.132;11.366;2023-05-29T10:29:55;27.90;45.70
8043;DHT22;4064;48.132;11.366;2023-05-29T10:40:23;28.00;47.90
8043;DHT22;4064;48.132;11.366;2023-05-29T10:42:51;27.80;44.40
8043;DHT22;4064;48.132;11.366;2023-05-29T10:50:45;27.60;41.60
8043;DHT22;4064;48.132;11.366;2023-05-29T10:53:25;27.40;41.20
8043;DHT22;4064;48.132;11.366;2023-05-29T10:55:52;27.30;43.50
8043;DHT22;4064;48.132;11.366;2023-05-29T10:58:22;27.30;44.30
8043;DHT22;4064;48.132;11.366;2023-05-29T11:00:54;27.30;42.40
8043;DHT22;4064;48.132;11.366;2023-05-29T11:03:32;27.50;43.90
8043;DHT22;4064;48.132;11.366;2023-05-29T11:06:20;27.30;40.70
8043;DHT22;4064;48.132;11.366;2023-05-29T11:08:56;27.30;43.90
8043;DHT22;4064;48.132;11.366;2023-05-29T11:13:55;27.50;43.00
8043;DHT22;4064;48.132;11.366;2023-05-29T11:18:56;27.80;45.10
8043;DHT22;4064;48.132;11.366;2023-05-29T11:24:35;27.70;43.90
8043;DHT22;4064;48.132;11.366;2023-05-29T11:27:03;27.60;44.20
8043;DHT22;4064;48.132;11.366;2023-05-29T11:29:33;27.30;45.60
8043;DHT22;4064;48.132;11.366;2023-05-29T11:32:05;27.20;45.90
8043;DHT22;4064;48.132;11.366;2023-05-29T11:34:33;27.30;45.70
8043;DHT22;4064;48.132;11.366;2023-05-29T11:37:03;27.30;43.40
8043;DHT22;4064;48.132;11.366;2023-05-29T11:39:30;27.40;42.60
8043;DHT22;4064;48.132;11.366;2023-05-29T11:41:57;27.50;43.50
8043;DHT22;4064;48.132;11.366;2023-05-29T11:44:26;27.60;44.20
8043;DHT22;4064;48.132;11.366;2023-05-29T11:47:12;27.40;43.90
8043;DHT22;4064;48.132;11.366;2023-05-29T11:49:38;27.30;44.10
8043;DHT22;4064;48.132;11.366;2023-05-29T11:52:14;27.20;44.20
8043;DHT22;4064;48.132;11.366;2023-05-29T11:55:06;27.20;44.90
8043;DHT22;4064;48.132;11.366;2023-05-29T11:57:32;27.50;44.20
8043;DHT22;4064;48.132;11.366;2023-05-29T11:59:58;27.60;43.60
8043;DHT22;4064;48.132;11.366;2023-05-29T12:02:25;27.60;43.70
8043;DHT22;4064;48.132;11.366;2023-05-29T12:05:03;27.70;42.70
8043;DHT22;4064;48.132;11.366;2023-05-29T12:07:30;27.70;43.80
8043;DHT22;4064;48.132;11.366;2023-05-29T12:09:56;27.60;42.40
8043;DHT22;4064;48.132;11.366;2023-05-29T12:12:25;27.70;42.80
8043;DHT22;4064;48.132;11.366;2023-05-29T12:14:52;27.80;43.30
8043;DHT22;4064;48.132;11.366;2023-05-29T12:17:19;28.00;43.30
8043;DHT22;4064;48.132;11.366;2023-05-29T12:19:46;28.20;43.40
8043;DHT22;4064;48.132;11.366;2023-05-29T12:22:13;28.20;42.50
8043;DHT22;4064;48.132;11.366;2023-05-29T12:24:38;28.30;42.20
8043;DHT22;4064;48.132;11.366;2023-05-29T12:27:05;28.20;42.70
8043;DHT22;4064;48.132;11.366;2023-05-29T12:29:35;28.10;42.40
8043;DHT22;4064;48.132;11.366;2023-05-29T12:32:01;28.10;42.00
8043;DHT22;4064;48.132;11.366;2023-05-29T12:34:34;28.00;41.80
8043;DHT22;4064;48.132;11.366;2023-05-29T12:37:08;28.00;43.00
8043;DHT22;4064;48.132;11.366;2023-05-29T12:39:35;28.00;42.40
8043;DHT22;4064;48.132;11.366;2023-05-29T12:42:01;28.00;43.60
8043;DHT22;4064;48.132;11.366;2023-05-29T12:44:27;28.20;42.20
8043;DHT22;4064;48.132;11.366;2023-05-29T12:46:56;28.40;43.30
8043;DHT22;4064;48.132;11.366;2023-05-29T12:49:22;28.50;40.90
8043;DHT22;4064;48.132;11.366;2023-05-29T12:51:51;28.40;40.20
8043;DHT22;4064;48.132;11.366;2023-05-29T12:54:18;28.10;39.80
8043;DHT22;4064;48.132;11.366;2023-05-29T12:56:44;28.10;41.50
8043;DHT22;4064;48.132;11.366;2023-05-29T12:59:11;28.10;39.80
8043;DHT22;4064;48.132;11.366;2023-05-29T13:01:38;27.90;41.40
8043;DHT22;4064;48.132;11.366;2023-05-29T13:04:05;27.90;41.30
8043;DHT22;4064;48.132;11.366;2023-05-29T13:06:42;27.90;41.60
8043;DHT22;4064;48.132;11.366;2023-05-29T13:09:08;28.00;40.90
8043;DHT22;4064;48.132;11.366;2023-05-29T13:11:34;28.00;41.50
8043;DHT22;4064;48.132;11.366;2023-05-29T13:14:00;28.00;40.70
8043;DHT22;4064;48.132;11.366;2023-05-29T13:16:26;27.90;40.10
8043;DHT22;4064;48.132;11.366;2023-05-29T13:18:52;27.70;40.40
8043;DHT22;4064;48.132;11.366;2023-05-29T13:21:18;27.60;41.10
8043;DHT22;4064;48.132;11.366;2023-05-29T13:23:44;27.80;42.40
8043;DHT22;4064;48.132;11.366;2023-05-29T13:26:10;27.90;41.20
8043;DHT22;4064;48.132;11.366;2023-05-29T13:28:36;27.70;39.60
8043;DHT22;4064;48.132;11.366;2023-05-29T13:31:02;27.50;40.80
8043;DHT22;4064;48.132;11.366;2023-05-29T13:33:29;27.30;40.40
8043;DHT22;4064;48.132;11.366;2023-05-29T13:35:55;27.40;42.20
8043;DHT22;4064;48.132;11.366;2023-05-29T13:38:21;27.60;42.80
8043;DHT22;4064;48.132;11.366;2023-05-29T13:40:46;27.70;42.80
8043;DHT22;4064;48.132;11.366;2023-05-29T13:43:12;27.30;41.20
8043;DHT22;4064;48.132;11.366;2023-05-29T13:45:38;27.10;41.60
8043;DHT22;4064;48.132;11.366;2023-05-29T13:48:06;27.00;43.20
8043;DHT22;4064;48.132;11.366;2023-05-29T13:50:33;27.00;43.20
8043;DHT22;4064;48.132;11.366;2023-05-29T13:52:59;26.80;43.20
8043;DHT22;4064;48.132;11.366;2023-05-29T13:55:27;26.80;43.70
8043;DHT22;4064;48.132;11.366;2023-05-29T13:57:53;26.80;42.60
8043;DHT22;4064;48.132;11.366;2023-05-29T14:00:24;26.70;42.80
8043;DHT22;4064;48.132;11.366;2023-05-29T14:02:51;26.60;43.40
8043;DHT22;4064;48.132;11.366;2023-05-29T14:05:17;26.50;42.40
8043;DHT22;4064;48.132;11.366;2023-05-29T14:07:45;26.50;43.20
8043;DHT22;4064;48.132;11.366;2023-05-29T14:10:11;26.50;43.90
8043;DHT22;4064;48.132;11.366;2023-05-29T14:12:36;26.50;44.10
8043;DHT22;4064;48.132;11.366;2023-05-29T14:15:02;26.30;44.10
8043;DHT22;4064;48.132;11.366;2023-05-29T14:17:28;26.20;44.30
8043;DHT22;4064;48.132;11.366;2023-05-29T14:19:54;26.00;44.60
8043;DHT22;4064;48.132;11.366;2023-05-29T14:22:21;25.80;44.20
8043;DHT22;4064;48.132;11.366;2023-05-29T14:24:46;25.80;44.40
8043;DHT22;4064;48.132;11.366;2023-05-29T14:27:12;25.70;43.30
8043;DHT22;4064;48.132;11.366;2023-05-29T14:29:38;25.50;45.00
8043;DHT22;4064;48.132;11.366;2023-05-29T14:32:04;25.40;44.90
8043;DHT22;4064;48.132;11.366;2023-05-29T14:34:30;25.30;44.40
8043;DHT22;4064;48.132;11.366;2023-05-29T14:36:56;25.20;44.50
8043;DHT22;4064;48.132;11.366;2023-05-29T14:39:22;25.20;45.00
8043;DHT22;4064;48.132;11.366;2023-05-29T14:41:47;25.20;45.60
8043;DHT22;4064;48.132;11.366;2023-05-29T14:44:14;25.20;45.00
8043;DHT22;4064;48.132;11.366;2023-05-29T14:46:40;25.20;46.00
8043;DHT22;4064;48.132;11.366;2023-05-29T14:49:05;25.30;46.20
8043;DHT22;4064;48.132;11.366;2023-05-29T14:51:31;25.20;46.40
8043;DHT22;4064;48.132;11.366;2023-05-29T14:53:58;25.10;45.20
8043;DHT22;4064;48.132;11.366;2023-05-29T14:56:24;25.00;45.20
8043;DHT22;4064;48.132;11.366;2023-05-29T14:58:50;25.00;46.30
8043;DHT22;4064;48.132;11.366;2023-05-29T15:01:16;25.00;45.80
8043;DHT22;4064;48.132;11.366;2023-05-29T15:03:42;24.90;45.30
8043;DHT22;4064;48.132;11.366;2023-05-29T15:06:09;24.80;45.90
8043;DHT22;4064;48.132;11.366;2023-05-29T15:08:37;24.80;46.40
8043;DHT22;4064;48.132;11.366;2023-05-29T15:11:03;24.70;46.70
8043;DHT22;4064;48.132;11.366;2023-05-29T15:13:29;24.50;46.50
8043;DHT22;4064;48.132;11.366;2023-05-29T15:15:56;24.40;46.20
8043;DHT22;4064;48.132;11.366;2023-05-29T15:18:29;24.30;46.50
8043;DHT22;4064;48.132;11.366;2023-05-29T15:20:55;24.30;46.90
8043;DHT22;4064;48.132;11.366;2023-05-29T15:23:24;24.20;47.70
8043;DHT22;4064;48.132;11.366;2023-05-29T15:25:50;24.20;47.50
8043;DHT22;4064;48.132;11.366;2023-05-29T15:28:16;24.10;47.30
8043;DHT22;4064;48.132;11.366;2023-05-29T15:30:43;24.10;48.10
8043;DHT22;4064;48.132;11.366;2023-05-29T15:33:09;24.10;46.30
8043;DHT22;4064;48.132;11.366;2023-05-29T15:35:37;24.00;46.70
8043;DHT22;4064;48.132;11.366;2023-05-29T15:38:03;23.90;46.30
8043;DHT22;4064;48.132;11.366;2023-05-29T15:40:30;23.90;46.20
8043;DHT22;4064;48.132;11.366;2023-05-29T15:42:56;23.80;46.60
8043;DHT22;4064;48.132;11.366;2023-05-29T15:45:21;23.80;46.60
8043;DHT22;4064;48.132;11.366;2023-05-29T15:47:49;23.80;46.90
8043;DHT22;4064;48.132;11.366;2023-05-29T15:50:16;23.80;47.20
8043;DHT22;4064;48.132;11.366;2023-05-29T15:52:42;23.70;45.70
8043;DHT22;4064;48.132;11.366;2023-05-29T15:55:08;23.60;45.30
8043;DHT22;4064;48.132;11.366;2023-05-29T15:57:38;23.50;46.30
8043;DHT22;4064;48.132;11.366;2023-05-29T16:00:05;23.50;46.60
8043;DHT22;4064;48.132;11.366;2023-05-29T16:02:31;23.40;46.60
8043;DHT22;4064;48.132;11.366;2023-05-29T16:04:57;23.40;46.40
8043;DHT22;4064;48.132;11.366;2023-05-29T16:07:22;23.30;46.40
8043;DHT22;4064;48.132;11.366;2023-05-29T16:09:49;23.20;46.40
8043;DHT22;4064;48.132;11.366;2023-05-29T16:12:15;23.20;46.00
8043;DHT22;4064;48.132;11.366;2023-05-29T16:14:41;23.10;46.20
8043;DHT22;4064;48.132;11.366;2023-05-29T16:17:07;23.00;45.70
8043;DHT22;4064;48.132;11.366;2023-05-29T16:19:33;23.00;45.80
8043;DHT22;4064;48.132;11.366;2023-05-29T16:22:00;23.00;45.90
8043;DHT22;4064;48.132;11.366;2023-05-29T16:24:26;22.90;45.80